sensor_id;sensor_type;location;lat;lon;timestamp;pressure;altitude;pressure_sealevel;temperature;humidity
13033;BME280;6583;42.632;23.298;2023-05-23T00:01:35;70316.00;;;-146.40;86.24
13033;BME280;6583;42.632;23.298;2023-05-23T00:04:02;70311.94;;;-146.40;87.43
13033;BME280;6583;42.632;23.298;2023-05-23T00:06:29;70297.78;;;-146.40;88.59
13033;BME280;6583;42.632;23.298;2023-05-23T00:08:57;70277.56;;;-146.40;88.48
13033;BME280;6583;42.632;23.298;2023-05-23T00:11:24;70249.22;;;-146.40;87.50
13033;BME280;6583;42.632;23.298;2023-05-23T00:13:51;70243.16;;;-146.40;86.42
13033;BME280;6583;42.632;23.298;2023-05-23T00:16:18;70216.84;;;-146.40;85.02
13033;BME280;6583;42.632;23.298;2023-05-23T00:18:46;70202.69;;;-146.40;83.70
13033;BME280;6583;42.632;23.298;2023-05-23T00:21:12;70190.56;;;-146.40;82.40
13033;BME280;6583;42.632;23.298;2023-05-23T00:23:40;70190.56;;;-146.40;80.40
13033;BME280;6583;42.632;23.298;2023-05-23T00:26:08;70229.00;;;-146.40;80.49
13033;BME280;6583;42.632;23.298;2023-05-23T00:28:36;70267.44;;;-146.40;82.01
13033;BME280;6583;42.632;23.298;2023-05-23T00:31:03;70307.91;;;-146.40;83.83
13033;BME280;6583;42.632;23.298;2023-05-23T00:33:30;70320.03;;;-146.40;85.55
13033;BME280;6583;42.632;23.298;2023-05-23T00:35:57;70328.13;;;-146.40;87.37
13033;BME280;6583;42.632;23.298;2023-05-23T00:38:24;70311.94;;;-146.40;88.68
13033;BME280;6583;42.632;23.298;2023-05-23T00:40:51;70303.84;;;-146.40;89.54
13033;BME280;6583;42.632;23.298;2023-05-23T00:43:19;70291.72;;;-146.40;88.53
13033;BME280;6583;42.632;23.298;2023-05-23T00:45:47;70299.81;;;-146.40;85.77
13033;BME280;6583;42.632;23.298;2023-05-23T00:48:14;70316.00;;;-146.40;85.50
13033;BME280;6583;42.632;23.298;2023-05-23T00:50:41;70316.00;;;-146.40;86.62
13033;BME280;6583;42.632;23.298;2023-05-23T00:53:08;70316.00;;;-146.40;88.24
13033;BME280;6583;42.632;23.298;2023-05-23T00:55:35;70309.91;;;-146.40;89.12
13033;BME280;6583;42.632;23.298;2023-05-23T00:58:04;70287.66;;;-146.40;88.55
13033;BME280;6583;42.632;23.298;2023-05-23T01:00:32;70279.56;;;-146.40;87.57
13033;BME280;6583;42.632;23.298;2023-05-23T01:03:00;70287.66;;;-146.40;86.01
13033;BME280;6583;42.632;23.298;2023-05-23T01:05:27;70301.84;;;-146.40;86.16
13033;BME280;6583;42.632;23.298;2023-05-23T01:07:53;70316.00;;;-146.40;86.41
13033;BME280;6583;42.632;23.298;2023-05-23T01:10:24;70336.22;;;-146.40;87.72
13033;BME280;6583;42.632;23.298;2023-05-23T01:13:01;70340.28;;;-146.40;88.63
13033;BME280;6583;42.632;23.298;2023-05-23T01:15:39;70342.28;;;-146.40;89.92
13033;BME280;6583;42.632;23.298;2023-05-23T01:18:11;70348.38;;;-146.40;91.10
13033;BME280;6583;42.632;23.298;2023-05-23T01:20:42;70340.28;;;-146.40;90.25
13033;BME280;6583;42.632;23.298;2023-05-23T01:26:30;70316.00;;;-146.40;88.65
13033;BME280;6583;42.632;23.298;2023-05-23T01:29:03;70318.00;;;-146.40;87.59
13033;BME280;6583;42.632;23.298;2023-05-23T01:31:35;70320.03;;;-146.40;87.80
13033;BME280;6583;42.632;23.298;2023-05-23T01:34:03;70328.13;;;-146.40;88.58
13033;BME280;6583;42.632;23.298;2023-05-23T01:36:32;70311.94;;;-146.40;89.71
13033;BME280;6583;42.632;23.298;2023-05-23T01:38:59;70309.91;;;-146.40;89.39
13033;BME280;6583;42.632;23.298;2023-05-23T01:41:26;70305.88;;;-146.40;89.82
13033;BME280;6583;42.632;23.298;2023-05-23T01:43:53;70303.84;;;-146.40;87.98
13033;BME280;6583;42.632;23.298;2023-05-23T01:46:23;70311.94;;;-146.40;87.74
13033;BME280;6583;42.632;23.298;2023-05-23T01:48:51;70318.00;;;-146.40;88.29
13033;BME280;6583;42.632;23.298;2023-05-23T01:51:20;70328.13;;;-146.40;89.48
13033;BME280;6583;42.632;23.298;2023-05-23T01:53:47;70326.09;;;-146.40;90.62
13033;BME280;6583;42.632;23.298;2023-05-23T01:56:14;70311.94;;;-146.40;90.36
13033;BME280;6583;42.632;23.298;2023-05-23T01:58:42;70291.72;;;-146.40;89.96
13033;BME280;6583;42.632;23.298;2023-05-23T02:01:08;70287.66;;;-146.40;89.32
13033;BME280;6583;42.632;23.298;2023-05-23T02:03:37;70291.72;;;-146.40;88.44
13033;BME280;6583;42.632;23.298;2023-05-23T02:06:03;70299.81;;;-146.40;87.73
13033;BME280;6583;42.632;23.298;2023-05-23T02:08:30;70307.91;;;-146.40;87.58
13033;BME280;6583;42.632;23.298;2023-05-23T02:10:57;70295.75;;;-146.40;87.17
13033;BME280;6583;42.632;23.298;2023-05-23T02:13:23;70291.72;;;-146.40;87.06
13033;BME280;6583;42.632;23.298;2023-05-23T02:15:50;70297.78;;;-146.40;87.22
13033;BME280;6583;42.632;23.298;2023-05-23T02:18:17;70291.72;;;-146.40;87.19
13033;BME280;6583;42.632;23.298;2023-05-23T02:20:45;70295.75;;;-146.40;87.71
13033;BME280;6583;42.632;23.298;2023-05-23T02:23:11;70291.72;;;-146.40;87.92
13033;BME280;6583;42.632;23.298;2023-05-23T02:25:38;70275.53;;;-146.40;86.65
13033;BME280;6583;42.632;23.298;2023-05-23T02:28:05;70277.56;;;-146.40;84.63
13033;BME280;6583;42.632;23.298;2023-05-23T02:30:31;70295.75;;;-146.40;85.46
13033;BME280;6583;42.632;23.298;2023-05-23T02:32:58;70301.84;;;-146.40;86.21
13033;BME280;6583;42.632;23.298;2023-05-23T02:35:25;70301.84;;;-146.40;87.41
13033;BME280;6583;42.632;23.298;2023-05-23T02:37:53;70291.72;;;-146.40;88.09
13033;BME280;6583;42.632;23.298;2023-05-23T02:40:20;70299.81;;;-146.40;86.54
13033;BME280;6583;42.632;23.298;2023-05-23T02:42:46;70289.69;;;-146.40;85.67
13033;BME280;6583;42.632;23.298;2023-05-23T02:45:15;70277.56;;;-146.40;86.20
13033;BME280;6583;42.632;23.298;2023-05-23T02:47:42;70267.44;;;-146.40;85.82
13033;BME280;6583;42.632;23.298;2023-05-23T02:50:09;70259.34;;;-146.40;84.98
13033;BME280;6583;42.632;23.298;2023-05-23T02:52:36;70259.34;;;-146.40;84.18
13033;BME280;6583;42.632;23.298;2023-05-23T02:55:05;70297.78;;;-146.40;84.74
13033;BME280;6583;42.632;23.298;2023-05-23T02:57:32;70316.00;;;-146.40;85.82
13033;BME280;6583;42.632;23.298;2023-05-23T02:59:58;70344.31;;;-146.40;87.13
13033;BME280;6583;42.632;23.298;2023-05-23T03:02:25;70352.41;;;-146.40;88.13
13033;BME280;6583;42.632;23.298;2023-05-23T03:04:52;70364.53;;;-146.40;89.36
13033;BME280;6583;42.632;23.298;2023-05-23T03:07:20;70380.72;;;-146.40;90.33
13033;BME280;6583;42.632;23.298;2023-05-23T03:09:46;70382.75;;;-146.40;91.19
13033;BME280;6583;42.632;23.298;2023-05-23T03:12:14;70386.81;;;-146.40;91.63
13033;BME280;6583;42.632;23.298;2023-05-23T03:14:41;70388.81;;;-146.40;92.52
13033;BME280;6583;42.632;23.298;2023-05-23T03:17:08;70386.81;;;-146.40;92.45
13033;BME280;6583;42.632;23.298;2023-05-23T03:19:34;70388.81;;;-146.40;93.14
13033;BME280;6583;42.632;23.298;2023-05-23T03:22:01;70378.72;;;-146.40;93.70
13033;BME280;6583;42.632;23.298;2023-05-23T03:24:28;70370.63;;;-146.40;93.79
13033;BME280;6583;42.632;23.298;2023-05-23T03:26:56;70364.53;;;-146.40;93.71
13033;BME280;6583;42.632;23.298;2023-05-23T03:29:24;70358.47;;;-146.40;94.12
13033;BME280;6583;42.632;23.298;2023-05-23T03:31:50;70350.38;;;-146.40;94.20
13033;BME280;6583;42.632;23.298;2023-05-23T03:34:17;70336.22;;;-146.40;93.94
13033;BME280;6583;42.632;23.298;2023-05-23T03:36:44;70324.09;;;-146.40;93.52
13033;BME280;6583;42.632;23.298;2023-05-23T03:39:10;70318.00;;;-146.40;91.98
13033;BME280;6583;42.632;23.298;2023-05-23T03:41:37;70322.06;;;-146.40;91.36
13033;BME280;6583;42.632;23.298;2023-05-23T03:44:04;70324.09;;;-146.40;91.87
13033;BME280;6583;42.632;23.298;2023-05-23T03:46:32;70313.97;;;-146.40;92.25
13033;BME280;6583;42.632;23.298;2023-05-23T03:48:58;70311.94;;;-146.40;92.97
13033;BME280;6583;42.632;23.298;2023-05-23T03:51:25;70295.75;;;-146.40;93.46
13033;BME280;6583;42.632;23.298;2023-05-23T03:53:52;70283.63;;;-146.40;93.99
13033;BME280;6583;42.632;23.298;2023-05-23T03:56:19;70267.44;;;-146.40;92.38
13033;BME280;6583;42.632;23.298;2023-05-23T03:58:45;70251.25;;;-146.40;91.56
13033;BME280;6583;42.632;23.298;2023-05-23T04:01:12;70235.06;;;-146.40;91.68
13033;BME280;6583;42.632;23.298;2023-05-23T04:03:40;70224.94;;;-146.40;91.83
13033;BME280;6583;42.632;23.298;2023-05-23T04:06:07;70210.78;;;-146.40;91.91
13033;BME280;6583;42.632;23.298;2023-05-23T04:08:33;70202.69;;;-146.40;91.62
13033;BME280;6583;42.632;23.298;2023-05-23T04:11:00;70196.63;;;-146.40;91.41
13033;BME280;6583;42.632;23.298;2023-05-23T04:13:27;70188.53;;;-146.40;91.18
13033;BME280;6583;42.632;23.298;2023-05-23T04:15:55;70178.44;;;-146.40;91.02
13033;BME280;6583;42.632;23.298;2023-05-23T04:18:22;70162.25;;;-146.40;90.79
13033;BME280;6583;42.632;23.298;2023-05-23T04:20:50;70154.16;;;-146.40;90.56
13033;BME280;6583;42.632;23.298;2023-05-23T04:23:16;70142.00;;;-146.40;89.58
13033;BME280;6583;42.632;23.298;2023-05-23T04:25:43;70137.97;;;-146.40;89.90
13033;BME280;6583;42.632;23.298;2023-05-23T04:28:10;70140.00;;;-146.40;90.60
13033;BME280;6583;42.632;23.298;2023-05-23T04:30:36;70142.00;;;-146.40;90.55
13033;BME280;6583;42.632;23.298;2023-05-23T04:33:03;70166.28;;;-146.40;89.57
13033;BME280;6583;42.632;23.298;2023-05-23T04:35:30;70154.16;;;-146.40;89.81
13033;BME280;6583;42.632;23.298;2023-05-23T04:37:59;70148.09;;;-146.40;89.97
13033;BME280;6583;42.632;23.298;2023-05-23T04:40:28;70150.09;;;-146.40;90.91
13033;BME280;6583;42.632;23.298;2023-05-23T04:42:54;70137.97;;;-146.40;90.19
13033;BME280;6583;42.632;23.298;2023-05-23T04:45:21;70140.00;;;-146.40;89.90
13033;BME280;6583;42.632;23.298;2023-05-23T04:47:48;70133.91;;;-146.40;87.43
13033;BME280;6583;42.632;23.298;2023-05-23T04:50:15;70135.94;;;-146.40;87.08
13033;BME280;6583;42.632;23.298;2023-05-23T04:52:42;70137.97;;;-146.40;86.83
13033;BME280;6583;42.632;23.298;2023-05-23T04:55:10;70135.94;;;-146.40;86.40
13033;BME280;6583;42.632;23.298;2023-05-23T04:57:37;70142.00;;;-146.40;87.54
13033;BME280;6583;42.632;23.298;2023-05-23T05:00:05;70146.06;;;-146.40;87.20
13033;BME280;6583;42.632;23.298;2023-05-23T05:02:34;70146.06;;;-146.40;87.61
13033;BME280;6583;42.632;23.298;2023-05-23T05:05:01;70146.06;;;-146.40;87.72
13033;BME280;6583;42.632;23.298;2023-05-23T05:07:28;70176.41;;;-146.40;88.15
13033;BME280;6583;42.632;23.298;2023-05-23T05:09:55;70174.38;;;-146.40;89.11
13033;BME280;6583;42.632;23.298;2023-05-23T05:12:23;70180.44;;;-146.40;89.21
13033;BME280;6583;42.632;23.298;2023-05-23T05:14:50;70182.47;;;-146.40;89.86
13033;BME280;6583;42.632;23.298;2023-05-23T05:17:17;70176.41;;;-146.40;89.73
13033;BME280;6583;42.632;23.298;2023-05-23T05:19:44;70178.44;;;-146.40;89.51
13033;BME280;6583;42.632;23.298;2023-05-23T05:22:11;70178.44;;;-146.40;90.11
13033;BME280;6583;42.632;23.298;2023-05-23T05:24:37;70162.25;;;-146.40;89.62
13033;BME280;6583;42.632;23.298;2023-05-23T05:27:05;70172.34;;;-146.40;88.73
13033;BME280;6583;42.632;23.298;2023-05-23T05:29:35;70166.28;;;-146.40;89.21
13033;BME280;6583;42.632;23.298;2023-05-23T05:32:01;70162.25;;;-146.40;90.95
13033;BME280;6583;42.632;23.298;2023-05-23T05:34:28;70150.09;;;-146.40;91.46
13033;BME280;6583;42.632;23.298;2023-05-23T05:36:55;70135.94;;;-146.40;91.25
13033;BME280;6583;42.632;23.298;2023-05-23T05:39:23;70125.81;;;-146.40;91.00
13033;BME280;6583;42.632;23.298;2023-05-23T05:41:50;70123.81;;;-146.40;90.46
13033;BME280;6583;42.632;23.298;2023-05-23T05:44:16;70107.63;;;-146.40;90.83
13033;BME280;6583;42.632;23.298;2023-05-23T05:46:44;70103.56;;;-146.40;90.77
13033;BME280;6583;42.632;23.298;2023-05-23T05:49:12;70099.53;;;-146.40;88.85
13033;BME280;6583;42.632;23.298;2023-05-23T05:51:39;70099.53;;;-146.40;87.82
13033;BME280;6583;42.632;23.298;2023-05-23T05:54:06;70101.56;;;-146.40;88.32
13033;BME280;6583;42.632;23.298;2023-05-23T05:56:33;70097.50;;;-146.40;88.19
13033;BME280;6583;42.632;23.298;2023-05-23T05:58:59;70101.56;;;-146.40;89.46
13033;BME280;6583;42.632;23.298;2023-05-23T06:01:26;70077.28;;;-146.40;90.00
13033;BME280;6583;42.632;23.298;2023-05-23T06:03:54;70057.03;;;-146.40;89.17
13033;BME280;6583;42.632;23.298;2023-05-23T06:06:21;70036.81;;;-146.40;89.23
13033;BME280;6583;42.632;23.298;2023-05-23T06:08:47;70018.59;;;-146.40;88.33
13033;BME280;6583;42.632;23.298;2023-05-23T06:11:14;69996.34;;;-146.40;89.27
13033;BME280;6583;42.632;23.298;2023-05-23T06:13:40;69972.09;;;-146.40;88.30
13033;BME280;6583;42.632;23.298;2023-05-23T06:16:07;69939.72;;;-146.40;86.11
13033;BME280;6583;42.632;23.298;2023-05-23T06:18:34;69915.44;;;-146.40;85.08
13033;BME280;6583;42.632;23.298;2023-05-23T06:21:02;69887.13;;;-146.40;84.58
13033;BME280;6583;42.632;23.298;2023-05-23T06:23:29;69866.91;;;-146.40;82.95
13033;BME280;6583;42.632;23.298;2023-05-23T06:25:57;69844.66;;;-146.40;81.80
13033;BME280;6583;42.632;23.298;2023-05-23T06:28:24;69828.47;;;-146.40;80.94
13033;BME280;6583;42.632;23.298;2023-05-23T06:30:51;69834.53;;;-146.40;79.25
13033;BME280;6583;42.632;23.298;2023-05-23T06:33:18;69834.53;;;-146.40;79.49
13033;BME280;6583;42.632;23.298;2023-05-23T06:35:45;69836.56;;;-146.40;78.84
13033;BME280;6583;42.632;23.298;2023-05-23T06:38:13;69842.63;;;-146.40;80.07
13033;BME280;6583;42.632;23.298;2023-05-23T06:40:40;69840.59;;;-146.40;79.88
13033;BME280;6583;42.632;23.298;2023-05-23T06:43:06;69822.41;;;-146.40;80.67
13033;BME280;6583;42.632;23.298;2023-05-23T06:45:33;69808.22;;;-146.40;74.94
13033;BME280;6583;42.632;23.298;2023-05-23T06:48:02;69798.13;;;-146.40;74.80
13033;BME280;6583;42.632;23.298;2023-05-23T06:50:29;69790.03;;;-146.40;77.71
13033;BME280;6583;42.632;23.298;2023-05-23T06:52:55;69775.88;;;-146.40;78.16
13033;BME280;6583;42.632;23.298;2023-05-23T06:55:23;69753.63;;;-146.40;74.39
13033;BME280;6583;42.632;23.298;2023-05-23T06:57:51;69725.31;;;-146.40;74.71
13033;BME280;6583;42.632;23.298;2023-05-23T07:00:18;69703.06;;;-146.40;72.76
13033;BME280;6583;42.632;23.298;2023-05-23T07:02:45;69729.34;;;-146.40;74.12
13033;BME280;6583;42.632;23.298;2023-05-23T07:05:12;69713.16;;;-146.40;74.52
13033;BME280;6583;42.632;23.298;2023-05-23T07:07:39;69688.88;;;-146.40;74.06
13033;BME280;6583;42.632;23.298;2023-05-23T07:10:07;69674.72;;;-146.40;73.03
13033;BME280;6583;42.632;23.298;2023-05-23T07:12:35;69644.38;;;-146.40;72.72
13033;BME280;6583;42.632;23.298;2023-05-23T07:15:02;69620.13;;;-146.40;72.71
13033;BME280;6583;42.632;23.298;2023-05-23T07:17:29;69597.88;;;-146.40;69.17
13033;BME280;6583;42.632;23.298;2023-05-23T07:19:56;69587.75;;;-146.40;70.32
13033;BME280;6583;42.632;23.298;2023-05-23T07:22:23;69573.59;;;-146.40;68.59
13033;BME280;6583;42.632;23.298;2023-05-23T07:24:50;69571.56;;;-146.40;66.50
13033;BME280;6583;42.632;23.298;2023-05-23T07:27:16;69549.31;;;-146.40;69.00
13033;BME280;6583;42.632;23.298;2023-05-23T07:29:44;69539.22;;;-146.40;67.38
13033;BME280;6583;42.632;23.298;2023-05-23T07:32:11;69529.09;;;-146.40;67.23
13033;BME280;6583;42.632;23.298;2023-05-23T07:34:38;69527.06;;;-146.40;65.10
13033;BME280;6583;42.632;23.298;2023-05-23T07:37:04;69523.03;;;-146.40;64.97
13033;BME280;6583;42.632;23.298;2023-05-23T07:39:31;69516.97;;;-146.40;63.30
13033;BME280;6583;42.632;23.298;2023-05-23T07:41:58;69527.06;;;-146.40;64.62
13033;BME280;6583;42.632;23.298;2023-05-23T07:44:24;69529.09;;;-146.40;63.34
13033;BME280;6583;42.632;23.298;2023-05-23T07:46:52;69529.09;;;-146.40;64.74
13033;BME280;6583;42.632;23.298;2023-05-23T07:49:19;69523.03;;;-146.40;63.72
13033;BME280;6583;42.632;23.298;2023-05-23T07:51:46;69502.81;;;-146.40;64.62
13033;BME280;6583;42.632;23.298;2023-05-23T07:54:13;69484.59;;;-146.40;63.85
13033;BME280;6583;42.632;23.298;2023-05-23T07:56:41;69462.34;;;-146.40;62.82
13033;BME280;6583;42.632;23.298;2023-05-23T07:59:08;69466.41;;;-146.40;59.00
13033;BME280;6583;42.632;23.298;2023-05-23T08:01:34;69466.41;;;-146.40;60.85
13033;BME280;6583;42.632;23.298;2023-05-23T08:04:03;69440.09;;;-146.40;62.27
13033;BME280;6583;42.632;23.298;2023-05-23T08:06:29;69442.13;;;-146.40;57.18
13033;BME280;6583;42.632;23.298;2023-05-23T08:08:56;69436.06;;;-146.40;57.46
13033;BME280;6583;42.632;23.298;2023-05-23T08:11:23;69421.91;;;-146.40;56.86
13033;BME280;6583;42.632;23.298;2023-05-23T08:13:51;69417.84;;;-146.40;58.37
13033;BME280;6583;42.632;23.298;2023-05-23T08:16:18;69405.72;;;-146.40;59.48
13033;BME280;6583;42.632;23.298;2023-05-23T08:18:45;69399.66;;;-146.40;58.49
13033;BME280;6583;42.632;23.298;2023-05-23T08:21:13;69399.66;;;-146.40;57.59
13033;BME280;6583;42.632;23.298;2023-05-23T08:23:39;69397.63;;;-146.40;55.08
13033;BME280;6583;42.632;23.298;2023-05-23T08:26:06;69391.56;;;-146.40;55.80
13033;BME280;6583;42.632;23.298;2023-05-23T08:28:32;69389.53;;;-146.40;55.76
13033;BME280;6583;42.632;23.298;2023-05-23T08:30:59;69381.44;;;-146.40;54.57
13033;BME280;6583;42.632;23.298;2023-05-23T08:33:26;69385.50;;;-146.40;50.75
13033;BME280;6583;42.632;23.298;2023-05-23T08:35:54;69369.31;;;-146.40;53.84
13033;BME280;6583;42.632;23.298;2023-05-23T08:38:22;69361.22;;;-146.40;50.65
13033;BME280;6583;42.632;23.298;2023-05-23T08:40:50;69361.22;;;-146.40;49.68
13033;BME280;6583;42.632;23.298;2023-05-23T08:43:17;69328.88;;;-146.40;50.31
13033;BME280;6583;42.632;23.298;2023-05-23T08:45:44;69314.72;;;-146.40;50.82
13033;BME280;6583;42.632;23.298;2023-05-23T08:48:13;69298.53;;;-146.40;50.33
13033;BME280;6583;42.632;23.298;2023-05-23T08:50:45;69300.56;;;-146.40;47.85
13033;BME280;6583;42.632;23.298;2023-05-23T08:53:14;69306.63;;;-146.40;46.37
13033;BME280;6583;42.632;23.298;2023-05-23T08:55:46;69308.63;;;-146.40;42.50
13033;BME280;6583;42.632;23.298;2023-05-23T08:58:13;69286.41;;;-146.40;45.63
13033;BME280;6583;42.632;23.298;2023-05-23T09:00:42;69292.47;;;-146.40;39.48
13033;BME280;6583;42.632;23.298;2023-05-23T09:03:08;69272.25;;;-146.40;40.84
13033;BME280;6583;42.632;23.298;2023-05-23T09:05:36;69264.16;;;-146.40;42.29
13033;BME280;6583;42.632;23.298;2023-05-23T09:08:03;69266.16;;;-146.40;41.81
13033;BME280;6583;42.632;23.298;2023-05-23T09:10:30;69280.31;;;-146.40;38.64
13033;BME280;6583;42.632;23.298;2023-05-23T09:12:58;69280.31;;;-146.40;40.22
13033;BME280;6583;42.632;23.298;2023-05-23T09:15:25;69308.63;;;-146.40;39.32
13033;BME280;6583;42.632;23.298;2023-05-23T09:17:58;69310.66;;;-146.40;40.05
13033;BME280;6583;42.632;23.298;2023-05-23T09:20:26;69300.56;;;-146.40;39.71
13033;BME280;6583;42.632;23.298;2023-05-23T09:22:54;69320.78;;;-146.40;39.96
13033;BME280;6583;42.632;23.298;2023-05-23T09:25:21;69328.88;;;-146.40;40.86
13033;BME280;6583;42.632;23.298;2023-05-23T09:27:47;69328.88;;;-146.40;40.77
13033;BME280;6583;42.632;23.298;2023-05-23T09:30:16;69326.84;;;-146.40;38.65
13033;BME280;6583;42.632;23.298;2023-05-23T09:32:56;69326.84;;;-146.40;39.78
13033;BME280;6583;42.632;23.298;2023-05-23T09:35:23;69324.81;;;-146.40;39.40
13033;BME280;6583;42.632;23.298;2023-05-23T09:37:50;69310.66;;;-146.40;39.73
13033;BME280;6583;42.632;23.298;2023-05-23T09:40:20;69324.81;;;-146.40;37.37
13033;BME280;6583;42.632;23.298;2023-05-23T09:42:47;69320.78;;;-146.40;38.09
13033;BME280;6583;42.632;23.298;2023-05-23T09:45:17;69308.63;;;-146.40;40.28
13033;BME280;6583;42.632;23.298;2023-05-23T09:47:48;69312.69;;;-146.40;37.47
13033;BME280;6583;42.632;23.298;2023-05-23T09:50:15;69296.50;;;-146.40;38.56
13033;BME280;6583;42.632;23.298;2023-05-23T09:52:42;69294.47;;;-146.40;37.72
13033;BME280;6583;42.632;23.298;2023-05-23T09:55:09;69280.31;;;-146.40;38.48
13033;BME280;6583;42.632;23.298;2023-05-23T09:57:39;69280.31;;;-146.40;37.33
13033;BME280;6583;42.632;23.298;2023-05-23T10:00:08;69290.44;;;-146.40;37.45
13033;BME280;6583;42.632;23.298;2023-05-23T10:02:57;69310.66;;;-146.40;37.08
13033;BME280;6583;42.632;23.298;2023-05-23T10:05:32;69308.63;;;-146.40;38.55
13033;BME280;6583;42.632;23.298;2023-05-23T10:08:01;69308.63;;;-146.40;37.25
13033;BME280;6583;42.632;23.298;2023-05-23T10:10:30;69330.88;;;-146.40;37.51
13033;BME280;6583;42.632;23.298;2023-05-23T10:13:01;69324.81;;;-146.40;38.88
13033;BME280;6583;42.632;23.298;2023-05-23T10:15:34;69312.69;;;-146.40;36.48
13033;BME280;6583;42.632;23.298;2023-05-23T10:18:08;69302.56;;;-146.40;36.21
13033;BME280;6583;42.632;23.298;2023-05-23T10:20:38;69296.50;;;-146.40;36.88
13033;BME280;6583;42.632;23.298;2023-05-23T10:23:05;69294.47;;;-146.40;37.45
13033;BME280;6583;42.632;23.298;2023-05-23T10:25:32;69266.16;;;-146.40;38.73
13033;BME280;6583;42.632;23.298;2023-05-23T10:28:01;69243.91;;;-146.40;37.53
13033;BME280;6583;42.632;23.298;2023-05-23T10:30:28;69233.81;;;-146.40;37.62
13033;BME280;6583;42.632;23.298;2023-05-23T10:32:55;69219.66;;;-146.40;35.64
13033;BME280;6583;42.632;23.298;2023-05-23T10:35:31;69213.59;;;-146.40;35.96
13033;BME280;6583;42.632;23.298;2023-05-23T10:38:09;69205.50;;;-146.40;35.05
13033;BME280;6583;42.632;23.298;2023-05-23T10:40:47;69213.59;;;-146.40;35.25
13033;BME280;6583;42.632;23.298;2023-05-23T10:43:21;69203.47;;;-146.40;35.22
13033;BME280;6583;42.632;23.298;2023-05-23T10:45:51;69195.38;;;-146.40;34.86
13033;BME280;6583;42.632;23.298;2023-05-23T10:48:21;69191.34;;;-146.40;36.81
13033;BME280;6583;42.632;23.298;2023-05-23T10:51:03;69199.44;;;-146.40;34.53
13033;BME280;6583;42.632;23.298;2023-05-23T10:53:31;69203.47;;;-146.40;33.58
13033;BME280;6583;42.632;23.298;2023-05-23T10:55:58;69225.72;;;-146.40;34.75
13033;BME280;6583;42.632;23.298;2023-05-23T10:58:24;69211.56;;;-146.40;35.00
13033;BME280;6583;42.632;23.298;2023-05-23T11:00:56;69207.53;;;-146.40;34.10
13033;BME280;6583;42.632;23.298;2023-05-23T11:03:33;69199.44;;;-146.40;35.35
13033;BME280;6583;42.632;23.298;2023-05-23T11:06:02;69175.16;;;-146.40;35.81
13033;BME280;6583;42.632;23.298;2023-05-23T11:08:36;69179.22;;;-146.40;35.20
13033;BME280;6583;42.632;23.298;2023-05-23T11:11:04;69211.56;;;-146.40;35.21
13033;BME280;6583;42.632;23.298;2023-05-23T11:13:57;69211.56;;;-146.40;34.96
13033;BME280;6583;42.632;23.298;2023-05-23T11:16:27;69217.63;;;-146.40;33.85
13033;BME280;6583;42.632;23.298;2023-05-23T11:19:24;69219.66;;;-146.40;35.39
13033;BME280;6583;42.632;23.298;2023-05-23T11:21:56;69197.41;;;-146.40;34.78
13033;BME280;6583;42.632;23.298;2023-05-23T11:24:23;69199.44;;;-146.40;34.78
13033;BME280;6583;42.632;23.298;2023-05-23T11:26:53;69179.22;;;-146.40;35.43
13033;BME280;6583;42.632;23.298;2023-05-23T11:29:25;69165.03;;;-146.40;35.75
13033;BME280;6583;42.632;23.298;2023-05-23T11:31:51;69150.88;;;-146.40;35.08
13033;BME280;6583;42.632;23.298;2023-05-23T11:34:18;69158.97;;;-146.40;34.52
13033;BME280;6583;42.632;23.298;2023-05-23T11:36:46;69138.75;;;-146.40;35.55
13033;BME280;6583;42.632;23.298;2023-05-23T11:39:14;69134.72;;;-146.40;33.44
13033;BME280;6583;42.632;23.298;2023-05-23T11:41:41;69142.81;;;-146.40;34.44
13033;BME280;6583;42.632;23.298;2023-05-23T11:44:11;69134.72;;;-146.40;32.63
13033;BME280;6583;42.632;23.298;2023-05-23T11:46:38;69134.72;;;-146.40;34.86
13033;BME280;6583;42.632;23.298;2023-05-23T11:49:10;69120.56;;;-146.40;35.09
13033;BME280;6583;42.632;23.298;2023-05-23T11:51:36;69126.63;;;-146.40;33.55
13033;BME280;6583;42.632;23.298;2023-05-23T11:54:03;69152.91;;;-146.40;33.79
13033;BME280;6583;42.632;23.298;2023-05-23T11:56:38;69154.94;;;-146.40;33.97
13033;BME280;6583;42.632;23.298;2023-05-23T11:59:04;69142.81;;;-146.40;34.63
13033;BME280;6583;42.632;23.298;2023-05-23T12:01:31;69134.72;;;-146.40;34.98
13033;BME280;6583;42.632;23.298;2023-05-23T12:03:58;69146.84;;;-146.40;34.13
13033;BME280;6583;42.632;23.298;2023-05-23T12:06:25;69154.94;;;-146.40;35.77
13033;BME280;6583;42.632;23.298;2023-05-23T12:08:52;69171.13;;;-146.40;34.94
13033;BME280;6583;42.632;23.298;2023-05-23T12:11:19;69171.13;;;-146.40;34.50
13033;BME280;6583;42.632;23.298;2023-05-23T12:13:51;69163.03;;;-146.40;35.42
13033;BME280;6583;42.632;23.298;2023-05-23T12:16:18;69171.13;;;-146.40;33.72
13033;BME280;6583;42.632;23.298;2023-05-23T12:18:44;69173.13;;;-146.40;33.54
13033;BME280;6583;42.632;23.298;2023-05-23T12:21:11;69163.03;;;-146.40;34.52
13033;BME280;6583;42.632;23.298;2023-05-23T12:23:38;69165.03;;;-146.40;34.05
13033;BME280;6583;42.632;23.298;2023-05-23T12:26:05;69158.97;;;-146.40;34.13
13033;BME280;6583;42.632;23.298;2023-05-23T12:28:35;69142.81;;;-146.40;34.80
13033;BME280;6583;42.632;23.298;2023-05-23T12:31:11;69132.69;;;-146.40;34.64
13033;BME280;6583;42.632;23.298;2023-05-23T12:33:38;69126.63;;;-146.40;33.89
13033;BME280;6583;42.632;23.298;2023-05-23T12:36:08;69126.63;;;-146.40;34.44
13033;BME280;6583;42.632;23.298;2023-05-23T12:38:35;69142.81;;;-146.40;34.12
13033;BME280;6583;42.632;23.298;2023-05-23T12:41:09;69130.66;;;-146.40;35.31
13033;BME280;6583;42.632;23.298;2023-05-23T12:43:37;69126.63;;;-146.40;33.34
13033;BME280;6583;42.632;23.298;2023-05-23T12:46:04;69130.66;;;-146.40;33.96
13033;BME280;6583;42.632;23.298;2023-05-23T12:48:32;69126.63;;;-146.40;34.10